Time;durP1;ratioP1;P1;durP2;ratioP2;P2;SDS_P1;SDS_P2;PMS_P1;PMS_P2;Temp;Humidity;BMP_temperature;BMP_pressure;BME280_temperature;BME280_humidity;BME280_pressure;Samples;Min_cycle;Max_cycle;Signal;HPM_P1;HPM_P2
2022/06/24 00:01:15;;;;;;;7.70;7.00;;;20.60;99.90;;;;;;10435844;28;20284;-84
2022/06/24 00:06:18;;;;;;;11.17;7.33;;;20.60;99.90;;;;;;10452120;28;20255;-82
2022/06/24 00:11:26;;;;;;;6.80;6.40;;;20.60;99.90;;;;;;10468917;28;20227;-83
2022/06/24 00:16:28;;;;;;;7.13;6.43;;;20.50;99.90;;;;;;10474819;28;20200;-84
2022/06/24 00:21:32;;;;;;;6.83;6.20;;;20.50;99.90;;;;;;10467101;28;20232;-81
2022/06/24 00:26:39;;;;;;;6.70;6.20;;;20.50;99.90;;;;;;10458232;28;20258;-84
2022/06/24 00:31:42;;;;;;;8.63;6.67;;;20.60;99.90;;;;;;10472204;22;20880;-77
2022/06/24 00:36:44;;;;;;;8.10;6.67;;;20.70;99.90;;;;;;10466561;28;20193;-78
2022/06/24 00:41:51;;;;;;;6.63;6.07;;;20.70;99.90;;;;;;10464149;28;20315;-78
2022/06/24 00:46:58;;;;;;;6.40;6.10;;;20.70;99.90;;;;;;10472365;28;20193;-78
2022/06/24 00:52:07;;;;;;;7.00;6.50;;;20.70;99.90;;;;;;10450665;28;20308;-78
2022/06/24 00:57:11;;;;;;;6.57;6.10;;;20.70;99.90;;;;;;10478101;28;20220;-77
2022/06/24 01:02:16;;;;;;;7.10;6.50;;;20.70;99.90;;;;;;10478359;28;20270;-77
2022/06/24 01:07:18;;;;;;;6.60;6.20;;;20.80;99.90;;;;;;10467831;28;20621;-77
2022/06/24 01:12:22;;;;;;;10.77;7.27;;;20.80;99.90;;;;;;10460214;28;20598;-77
2022/06/24 01:17:24;;;;;;;7.00;6.40;;;20.80;99.90;;;;;;10478194;28;20638;-76
2022/06/24 01:22:28;;;;;;;7.43;6.53;;;20.90;99.90;;;;;;10482679;28;20237;-77
2022/06/24 01:27:30;;;;;;;7.93;6.93;;;20.90;99.90;;;;;;10474285;28;20211;-78
2022/06/24 01:32:34;;;;;;;7.13;6.70;;;20.90;99.90;;;;;;10475813;28;20248;-77
2022/06/24 01:37:41;;;;;;;10.03;7.10;;;20.90;99.90;;;;;;10488407;28;20214;-77
2022/06/24 01:42:43;;;;;;;9.70;6.70;;;20.90;99.90;;;;;;10482678;28;20292;-77
2022/06/24 01:47:45;;;;;;;7.30;6.70;;;20.90;99.90;;;;;;10489263;28;20234;-77
2022/06/24 01:52:48;;;;;;;6.90;6.47;;;20.90;99.90;;;;;;10479408;28;20303;-77
2022/06/24 01:57:50;;;;;;;7.67;7.03;;;20.90;99.90;;;;;;10493298;28;20228;-78
2022/06/24 02:02:52;;;;;;;7.30;6.80;;;20.90;99.90;;;;;;10495108;28;20196;-78
2022/06/24 02:07:56;;;;;;;6.70;6.30;;;20.90;99.90;;;;;;10487747;28;20205;-79
2022/06/24 02:18:18;;;;;;;6.73;6.20;;;20.90;99.90;;;;;;10496496;28;20217;-78
2022/06/24 02:23:22;;;;;;;6.70;6.20;;;20.80;99.90;;;;;;10497901;28;20196;-78
2022/06/24 02:28:24;;;;;;;7.17;6.57;;;20.80;99.90;;;;;;10491675;28;20710;-77
2022/06/24 02:33:27;;;;;;;8.97;6.87;;;20.70;99.90;;;;;;10493464;28;20201;-77
2022/06/24 02:38:30;;;;;;;7.47;6.33;;;20.60;99.90;;;;;;10492516;28;20209;-77
2022/06/24 02:43:34;;;;;;;7.97;7.17;;;20.60;99.90;;;;;;10495771;28;20239;-77
2022/06/24 02:48:38;;;;;;;7.07;6.47;;;20.50;99.90;;;;;;10496115;28;20211;-77
2022/06/24 02:53:43;;;;;;;7.60;6.90;;;20.40;99.90;;;;;;10491713;28;20262;-78
2022/06/24 02:58:45;;;;;;;9.10;6.37;;;20.40;99.90;;;;;;10474531;28;20217;-77
2022/06/24 03:03:47;;;;;;;8.17;7.47;;;20.30;99.90;;;;;;10493357;28;20211;-77
2022/06/24 03:08:51;;;;;;;7.00;6.60;;;20.30;99.90;;;;;;10490511;28;20220;-77
2022/06/24 03:13:53;;;;;;;8.10;7.30;;;20.30;99.90;;;;;;10495908;28;20204;-78
2022/06/24 03:18:55;;;;;;;7.83;7.17;;;20.20;99.90;;;;;;10486867;28;20295;-77
2022/06/24 03:23:58;;;;;;;7.60;6.80;;;20.20;99.90;;;;;;10467794;28;20287;-77
2022/06/24 03:29:00;;;;;;;7.90;6.93;;;20.20;99.90;;;;;;10461007;28;20232;-76
2022/06/24 03:34:02;;;;;;;7.80;7.20;;;20.20;99.90;;;;;;10488490;28;20289;-77
2022/06/24 03:39:06;;;;;;;6.90;6.13;;;20.20;99.90;;;;;;10486849;28;20222;-77
2022/06/24 03:44:08;;;;;;;8.83;7.87;;;20.20;99.90;;;;;;10460894;28;20280;-77
2022/06/24 03:49:10;;;;;;;6.80;6.27;;;20.20;99.90;;;;;;10471363;28;20679;-77
2022/06/24 03:54:14;;;;;;;7.30;6.60;;;20.20;99.90;;;;;;10469654;28;20265;-77
2022/06/24 03:59:16;;;;;;;8.53;6.30;;;20.20;99.90;;;;;;10472131;28;20243;-78
2022/06/24 04:04:18;;;;;;;6.70;6.07;;;20.20;99.90;;;;;;10480128;28;20259;-77
2022/06/24 04:09:22;;;;;;;5.27;4.77;;;20.20;99.90;;;;;;10474337;28;20229;-78
2022/06/24 04:19:40;;;;;;;5.83;5.27;;;20.20;99.90;;;;;;10478365;28;20239;-78
2022/06/24 04:24:43;;;;;;;5.30;4.90;;;20.20;99.90;;;;;;10484887;28;20734;-77
2022/06/24 04:29:45;;;;;;;11.17;4.83;;;20.20;99.90;;;;;;10477544;28;20245;-77
2022/06/24 04:34:47;;;;;;;6.60;4.77;;;20.30;99.90;;;;;;10471366;28;20225;-78
2022/06/24 04:39:51;;;;;;;5.20;4.40;;;20.30;99.90;;;;;;10463275;28;20306;-78
2022/06/24 04:44:53;;;;;;;3.80;3.33;;;20.30;99.90;;;;;;10449555;28;20626;-77
2022/06/24 04:49:55;;;;;;;5.87;4.50;;;20.40;99.90;;;;;;10487911;28;20227;-77
2022/06/24 04:55:00;;;;;;;5.37;4.70;;;20.40;99.90;;;;;;10478852;28;20649;-78
2022/06/24 05:00:03;;;;;;;7.83;4.40;;;20.50;99.90;;;;;;10481727;28;20216;-77
2022/06/24 05:05:06;;;;;;;5.30;4.13;;;20.60;99.90;;;;;;10455959;28;20208;-78
2022/06/24 05:10:10;;;;;;;8.20;4.10;;;20.60;99.90;;;;;;10468153;28;20299;-77
2022/06/24 05:15:12;;;;;;;4.90;4.10;;;20.70;99.90;;;;;;10444959;28;20679;-77
2022/06/24 05:20:14;;;;;;;6.37;5.07;;;20.70;99.90;;;;;;10491484;28;20223;-77
2022/06/24 05:25:18;;;;;;;6.90;4.17;;;20.80;99.90;;;;;;10482416;28;20254;-77
2022/06/24 05:30:20;;;;;;;4.90;4.13;;;20.80;99.90;;;;;;10497254;28;20239;-78
2022/06/24 05:35:22;;;;;;;6.67;4.60;;;20.90;99.90;;;;;;10506775;28;20192;-78
2022/06/24 05:40:26;;;;;;;6.83;5.50;;;21.00;99.90;;;;;;10505739;28;20208;-78
2022/06/24 05:45:28;;;;;;;5.57;5.13;;;21.10;99.90;;;;;;10505275;28;20216;-78
2022/06/24 05:50:30;;;;;;;12.80;4.83;;;21.30;99.90;;;;;;10503496;28;20275;-78
2022/06/24 05:55:33;;;;;;;9.93;4.80;;;21.40;99.90;;;;;;10505655;28;20192;-78
2022/06/24 06:00:36;;;;;;;6.10;4.67;;;21.60;99.90;;;;;;10507265;28;20236;-78
2022/06/24 06:05:38;;;;;;;7.00;5.17;;;21.70;99.90;;;;;;10508474;28;20236;-78
2022/06/24 06:10:43;;;;;;;6.93;4.93;;;21.70;99.90;;;;;;10500784;28;20274;-78
2022/06/24 06:15:46;;;;;;;6.73;4.80;;;21.70;99.90;;;;;;10504033;28;20211;-78
2022/06/24 06:20:48;;;;;;;7.13;4.13;;;21.80;99.90;;;;;;10483648;28;20667;-78
2022/06/24 06:25:52;;;;;;;5.73;5.00;;;21.90;99.90;;;;;;10479568;28;20351;-77
2022/06/24 06:30:54;;;;;;;4.70;4.40;;;21.90;99.90;;;;;;10538814;22;20231;-83
2022/06/24 06:36:02;;;;;;;5.13;4.60;;;22.00;99.90;;;;;;10489317;28;20204;-81
2022/06/24 06:41:06;;;;;;;4.67;4.27;;;22.10;99.90;;;;;;10477265;28;20285;-83
2022/06/24 06:46:09;;;;;;;11.53;4.30;;;22.20;99.90;;;;;;10478562;28;20200;-82
2022/06/24 06:51:12;;;;;;;4.43;4.03;;;22.40;99.90;;;;;;10468135;28;20216;-80
2022/06/24 06:56:15;;;;;;;5.80;4.00;;;22.60;99.90;;;;;;10496670;28;20680;-82
2022/06/24 07:01:17;;;;;;;5.73;4.50;;;22.90;99.90;;;;;;10474469;28;20217;-80
2022/06/24 07:06:19;;;;;;;5.30;3.20;;;23.10;99.90;;;;;;10469369;28;20250;-81
2022/06/24 07:11:23;;;;;;;6.73;4.43;;;23.40;99.90;;;;;;10496125;28;20232;-83
2022/06/24 07:16:26;;;;;;;6.97;3.23;;;23.60;99.90;;;;;;10476723;28;20223;-82
2022/06/24 07:21:28;;;;;;;4.37;3.80;;;23.80;99.90;;;;;;10464914;28;20234;-80
2022/06/24 07:26:31;;;;;;;6.13;4.80;;;24.00;99.90;;;;;;10478537;28;20203;-82
2022/06/24 07:31:35;;;;;;;3.97;3.63;;;24.30;99.90;;;;;;10486146;28;20279;-82
2022/06/24 07:36:37;;;;;;;3.83;3.57;;;24.50;99.90;;;;;;10510755;28;20707;-82
2022/06/24 07:41:43;;;;;;;3.60;3.30;;;25.00;99.90;;;;;;10493694;28;20225;-83
2022/06/24 07:46:45;;;;;;;4.03;2.97;;;25.30;99.90;;;;;;10490499;28;20216;-81
2022/06/24 07:52:23;;;;;;;3.40;3.10;;;25.80;99.90;;;;;;10497086;28;20233;-82
2022/06/24 07:57:27;;;;;;;6.03;3.67;;;26.20;99.90;;;;;;10453958;28;20212;-83
2022/06/24 08:02:32;;;;;;;6.03;4.00;;;26.90;99.90;;;;;;10493039;28;20232;-82
2022/06/24 08:07:34;;;;;;;3.60;3.37;;;27.40;99.90;;;;;;10482318;28;20220;-82
2022/06/24 08:12:39;;;;;;;4.53;3.00;;;27.90;97.30;;;;;;10477772;28;20226;-83
2022/06/24 08:17:41;;;;;;;5.40;3.30;;;28.20;96.70;;;;;;10467355;28;20284;-81
2022/06/24 08:22:43;;;;;;;2.97;2.77;;;28.60;95.60;;;;;;10466200;28;20678;-83
2022/06/24 08:27:52;;;;;;;4.33;3.00;;;29.00;94.70;;;;;;10455995;28;20224;-82
2022/06/24 08:32:54;;;;;;;2.80;2.70;;;29.50;92.60;;;;;;10481324;28;20221;-82
2022/06/24 08:37:58;;;;;;;3.03;2.73;;;29.70;90.20;;;;;;10461878;28;20557;-80
2022/06/24 08:43:02;;;;;;;2.60;1.90;;;29.70;90.50;;;;;;10472385;28;20216;-81
2022/06/24 08:48:07;;;;;;;2.60;2.50;;;29.90;87.80;;;;;;10472027;28;20270;-82
2022/06/24 08:53:11;;;;;;;2.90;2.67;;;30.20;84.00;;;;;;10444642;28;20641;-82
2022/06/24 08:58:14;;;;;;;2.70;2.50;;;30.20;82.80;;;;;;10451629;28;20279;-81
2022/06/24 09:03:16;;;;;;;3.83;2.87;;;30.20;81.40;;;;;;10451954;28;20580;-83
2022/06/24 09:08:19;;;;;;;2.80;2.70;;;30.10;81.20;;;;;;10456401;28;20656;-82
2022/06/24 09:13:22;;;;;;;2.50;2.30;;;30.00;83.70;;;;;;10468845;28;20778;-83
2022/06/24 09:18:25;;;;;;;3.03;2.73;;;30.20;84.00;;;;;;10458661;28;20209;-80
2022/06/24 09:23:27;;;;;;;2.17;2.00;;;30.80;80.20;;;;;;10438628;28;20691;-84
2022/06/24 09:28:33;;;;;;;3.73;1.87;;;31.20;78.90;;;;;;10470370;28;20230;-82
2022/06/24 09:33:37;;;;;;;5.00;2.20;;;31.70;78.70;;;;;;10470502;28;20189;-82
2022/06/24 09:38:54;;;;;;;2.20;2.00;;;31.70;73.30;;;;;;10464043;28;20220;-81
2022/06/24 09:44:01;;;;;;;2.47;2.27;;;32.30;76.30;;;;;;10469822;28;20265;-82
2022/06/24 09:49:05;;;;;;;3.10;2.73;;;33.70;72.00;;;;;;10475292;28;20220;-83
2022/06/24 09:54:07;;;;;;;2.80;2.10;;;35.40;67.30;;;;;;10469938;28;20196;-82
2022/06/24 10:04:34;;;;;;;2.90;2.67;;;35.60;61.20;;;;;;10470580;28;20200;-83
2022/06/24 10:09:37;;;;;;;3.00;2.20;;;35.00;59.70;;;;;;10467267;28;20274;-83
2022/06/24 10:14:41;;;;;;;5.73;2.90;;;35.20;62.30;;;;;;10451527;28;20234;-81
2022/06/24 10:19:46;;;;;;;2.17;1.88;;;36.40;60.70;;;;;;10473164;28;20220;-82
2022/06/24 10:24:48;;;;;;;3.25;2.10;;;37.90;59.80;;;;;;10487732;28;20556;-84
2022/06/24 10:29:51;;;;;;;2.43;2.33;;;37.20;56.60;;;;;;10488475;28;20313;-81
2022/06/24 10:34:58;;;;;;;3.53;2.77;;;35.70;58.90;;;;;;10473105;28;20749;-82
2022/06/24 10:40:01;;;;;;;2.90;2.70;;;34.10;59.80;;;;;;10476597;28;20221;-81
2022/06/24 10:45:06;;;;;;;4.30;3.23;;;32.60;63.80;;;;;;10486913;28;20197;-83
2022/06/24 10:50:14;;;;;;;6.10;3.37;;;31.30;70.40;;;;;;10454623;28;20220;-83
2022/06/24 10:55:50;;;;;;;8.40;3.10;;;30.30;73.10;;;;;;10477099;28;20196;-81
2022/06/24 11:00:56;;;;;;;3.03;2.83;;;29.80;74.20;;;;;;10490494;28;20228;-81
2022/06/24 11:05:58;;;;;;;3.70;2.90;;;29.50;75.50;;;;;;10464546;28;20247;-81
2022/06/24 11:11:00;;;;;;;3.03;2.83;;;29.40;76.80;;;;;;10468360;28;20217;-83
2022/06/24 11:16:04;;;;;;;3.10;2.90;;;29.20;75.90;;;;;;10496527;28;20192;-82
2022/06/24 11:21:09;;;;;;;3.57;3.20;;;28.90;79.00;;;;;;10468073;28;20649;-82
2022/06/24 11:26:14;;;;;;;8.50;3.60;;;28.50;80.90;;;;;;10436377;28;20654;-80
2022/06/24 11:31:20;;;;;;;3.03;2.77;;;28.10;81.50;;;;;;10482170;28;20232;-83
2022/06/24 11:36:23;;;;;;;3.60;3.30;;;27.80;83.10;;;;;;10465546;28;20204;-83
2022/06/24 11:41:27;;;;;;;3.73;3.30;;;27.50;82.60;;;;;;10479460;28;20722;-82
2022/06/24 11:46:33;;;;;;;4.13;3.67;;;27.20;82.60;;;;;;10470865;28;20200;-83
2022/06/24 11:51:35;;;;;;;5.40;3.10;;;27.00;84.50;;;;;;10442576;28;20216;-81
2022/06/24 11:56:40;;;;;;;4.80;3.10;;;26.80;82.70;;;;;;10465765;28;20258;-81
2022/06/24 12:01:44;;;;;;;2.83;2.50;;;26.70;84.70;;;;;;10465676;28;20208;-83
2022/06/24 12:06:47;;;;;;;3.30;3.00;;;26.60;85.30;;;;;;10476789;28;20675;-82
2022/06/24 12:11:49;;;;;;;3.13;2.93;;;26.50;81.40;;;;;;10453445;28;20825;-85
2022/06/24 12:16:59;;;;;;;2.90;2.70;;;26.60;82.30;;;;;;10485546;28;20194;-84
2022/06/24 12:22:09;;;;;;;2.90;2.70;;;26.90;82.20;;;;;;10460441;28;20227;-84
2022/06/24 12:27:13;;;;;;;4.57;2.40;;;27.00;81.80;;;;;;10484345;28;20206;-82
2022/06/24 12:32:16;;;;;;;2.40;2.30;;;27.10;81.90;;;;;;10513026;22;20228;-79
2022/06/24 12:37:20;;;;;;;2.50;2.30;;;27.10;80.30;;;;;;10483190;28;20228;-79
2022/06/24 12:42:25;;;;;;;2.47;2.33;;;26.90;80.80;;;;;;10453446;28;20735;-79
2022/06/24 12:52:48;;;;;;;3.20;2.90;;;26.50;80.20;;;;;;10436843;28;20587;-78
2022/06/24 12:57:50;;;;;;;3.57;3.13;;;26.40;83.90;;;;;;10439263;28;20276;-78
2022/06/24 13:02:55;;;;;;;5.23;3.57;;;26.20;89.90;;;;;;10453849;28;20235;-79
2022/06/24 13:07:57;;;;;;;5.20;4.70;;;26.00;93.90;;;;;;10418123;28;20235;-78
2022/06/24 13:13:00;;;;;;;4.57;4.13;;;25.30;96.60;;;;;;10434740;28;20307;-78
2022/06/24 13:18:03;;;;;;;4.67;3.70;;;24.80;99.80;;;;;;10436829;28;20201;-78
2022/06/24 13:23:05;;;;;;;5.90;5.40;;;24.20;99.90;;;;;;10440544;28;20245;-78
2022/06/24 13:28:08;;;;;;;14.30;5.93;;;23.70;99.90;;;;;;10436081;28;20207;-78
2022/06/24 13:33:11;;;;;;;6.40;5.80;;;23.30;99.90;;;;;;10424633;28;20282;-78
2022/06/24 13:38:13;;;;;;;6.80;6.30;;;22.90;99.90;;;;;;10461610;28;20196;-78
2022/06/24 13:43:18;;;;;;;7.07;6.47;;;22.50;99.90;;;;;;10459453;28;20235;-78
2022/06/24 13:48:21;;;;;;;6.00;5.70;;;22.20;99.90;;;;;;10451791;28;20193;-78
2022/06/24 13:53:23;;;;;;;5.70;5.40;;;22.00;99.90;;;;;;10458349;28;20221;-79
2022/06/24 13:58:25;;;;;;;6.03;5.50;;;21.90;99.90;;;;;;10430879;28;20197;-78
2022/06/24 14:03:29;;;;;;;6.27;5.87;;;21.80;99.90;;;;;;10451276;28;20239;-79
2022/06/24 14:08:31;;;;;;;5.40;5.07;;;21.70;99.90;;;;;;10444319;28;20255;-78
2022/06/24 14:13:33;;;;;;;6.13;5.73;;;21.80;99.90;;;;;;10449938;28;20546;-78
2022/06/24 14:18:37;;;;;;;6.70;6.30;;;21.70;99.90;;;;;;10455196;28;20217;-78
2022/06/24 14:28:58;;;;;;;9.60;9.00;;;21.50;99.90;;;;;;10456732;28;20228;-78
2022/06/24 14:34:02;;;;;;;10.67;9.60;;;21.40;99.90;;;;;;10456855;28;20613;-78
2022/06/24 14:44:27;;;;;;;10.30;9.43;;;21.10;99.90;;;;;;10455920;28;20239;-78
2022/06/24 14:49:31;;;;;;;6.20;5.80;;;21.00;99.90;;;;;;10456669;28;20288;-77
2022/06/24 14:54:33;;;;;;;6.60;6.17;;;20.80;99.90;;;;;;10436399;28;20304;-79
2022/06/24 14:59:35;;;;;;;8.27;7.77;;;20.70;99.90;;;;;;10433402;28;20299;-78
2022/06/24 15:04:39;;;;;;;7.77;7.40;;;20.70;99.90;;;;;;10454130;28;20204;-79
2022/06/24 15:09:41;;;;;;;5.90;5.47;;;20.60;99.90;;;;;;10431893;28;20249;-79
2022/06/24 15:14:46;;;;;;;6.63;6.17;;;20.60;99.90;;;;;;10433206;28;20225;-78
2022/06/24 15:19:50;;;;;;;6.37;5.97;;;20.50;99.90;;;;;;10435098;28;20221;-78
2022/06/24 15:24:52;;;;;;;8.33;7.93;;;20.50;99.90;;;;;;10435122;28;20201;-79
2022/06/24 15:29:54;;;;;;;8.67;5.87;;;20.40;99.90;;;;;;10433415;28;20239;-80
2022/06/24 15:34:58;;;;;;;7.97;7.37;;;20.40;99.90;;;;;;10443198;28;20264;-79
2022/06/24 15:40:00;;;;;;;7.23;6.27;;;20.30;99.90;;;;;;10454910;28;20724;-80
2022/06/24 15:45:03;;;;;;;7.93;7.40;;;20.30;99.90;;;;;;10454314;28;20669;-79
2022/06/24 15:50:07;;;;;;;7.63;5.77;;;20.40;99.90;;;;;;10436319;28;20225;-79
2022/06/24 15:55:11;;;;;;;8.97;8.43;;;20.50;99.90;;;;;;10436368;28;20233;-79
2022/06/24 16:00:14;;;;;;;7.60;7.00;;;20.40;99.90;;;;;;10432594;28;20259;-79
2022/06/24 16:05:17;;;;;;;7.77;7.20;;;20.40;99.90;;;;;;10421402;28;20201;-80
2022/06/24 16:10:19;;;;;;;7.40;6.73;;;20.50;99.90;;;;;;10452123;28;20254;-77
2022/06/24 16:15:22;;;;;;;7.10;6.70;;;20.50;99.90;;;;;;10458309;28;20700;-79
2022/06/24 16:20:25;;;;;;;7.20;6.70;;;20.60;99.90;;;;;;10453208;28;22045;-80
2022/06/24 16:30:47;;;;;;;7.90;7.33;;;20.60;99.90;;;;;;10441070;28;20662;-77
2022/06/24 16:35:51;;;;;;;7.23;6.73;;;20.60;99.90;;;;;;10439901;28;20673;-80
2022/06/24 16:40:53;;;;;;;6.63;6.03;;;20.60;99.90;;;;;;10441761;28;20248;-79
2022/06/24 16:45:58;;;;;;;7.00;6.70;;;20.60;99.90;;;;;;10445188;28;20571;-79
2022/06/24 16:51:02;;;;;;;6.97;6.47;;;20.60;99.90;;;;;;10456153;28;20244;-80
2022/06/24 16:56:05;;;;;;;7.00;6.70;;;20.60;99.90;;;;;;10438643;28;20552;-80
2022/06/24 17:01:07;;;;;;;7.00;6.50;;;20.60;99.90;;;;;;10439031;28;20286;-80
2022/06/24 17:06:11;;;;;;;4.90;4.60;;;20.60;99.90;;;;;;10445569;28;20664;-80
2022/06/24 17:11:13;;;;;;;6.60;5.83;;;20.60;99.90;;;;;;10444720;28;20217;-80
2022/06/24 17:16:16;;;;;;;4.27;4.07;;;20.50;99.90;;;;;;10443887;28;20850;-79
2022/06/24 17:21:19;;;;;;;4.40;4.10;;;20.30;99.90;;;;;;10437323;28;20221;-78
2022/06/24 17:26:22;;;;;;;4.57;4.37;;;20.20;99.90;;;;;;10426371;28;20225;-79
2022/06/24 17:31:24;;;;;;;4.80;4.50;;;20.00;99.90;;;;;;10449408;28;20583;-79
2022/06/24 17:36:27;;;;;;;6.07;5.63;;;19.80;99.90;;;;;;10437296;28;20280;-79
2022/06/24 17:41:29;;;;;;;5.47;5.27;;;19.70;99.90;;;;;;10430149;28;20383;-79
2022/06/24 17:46:31;;;;;;;5.93;5.63;;;19.60;99.90;;;;;;10436798;28;20808;-79
2022/06/24 17:51:35;;;;;;;5.73;5.43;;;19.60;99.90;;;;;;10442924;28;20217;-79
2022/06/24 17:56:37;;;;;;;7.20;6.70;;;19.70;99.90;;;;;;10407731;28;20201;-79
2022/06/24 18:01:39;;;;;;;5.70;5.40;;;19.70;99.90;;;;;;10442944;28;20304;-79
2022/06/24 18:06:43;;;;;;;4.60;4.30;;;19.80;99.90;;;;;;10438930;28;20724;-79
2022/06/24 18:11:45;;;;;;;4.60;4.40;;;19.80;99.90;;;;;;10443157;28;20307;-78
2022/06/24 18:16:47;;;;;;;3.53;3.33;;;19.80;99.90;;;;;;10446165;28;20203;-76
2022/06/24 18:21:51;;;;;;;5.37;5.07;;;19.90;99.90;;;;;;10437734;28;20312;-77
2022/06/24 18:26:53;;;;;;;3.47;3.17;;;19.80;99.90;;;;;;10447747;28;20711;-78
2022/06/24 18:31:55;;;;;;;5.67;5.37;;;19.90;99.90;;;;;;10443334;28;20319;-77
2022/06/24 18:36:59;;;;;;;5.07;4.87;;;19.90;99.90;;;;;;10439686;28;20194;-77
2022/06/24 18:42:01;;;;;;;4.70;4.60;;;19.80;99.90;;;;;;10443510;28;20295;-77
2022/06/24 18:47:03;;;;;;;4.47;4.27;;;19.80;99.90;;;;;;10436749;28;20371;-77
2022/06/24 18:52:08;;;;;;;6.37;6.07;;;19.80;99.90;;;;;;10422720;28;20219;-78
2022/06/24 18:57:10;;;;;;;6.00;5.73;;;19.70;99.90;;;;;;10447776;28;20719;-77
2022/06/24 19:02:12;;;;;;;5.70;5.40;;;19.70;99.90;;;;;;10453632;28;20290;-77
2022/06/24 19:07:15;;;;;;;4.00;3.80;;;19.70;99.90;;;;;;10439169;28;20280;-76
2022/06/24 19:12:18;;;;;;;6.60;6.20;;;19.70;99.90;;;;;;10443801;28;20237;-78
2022/06/24 19:17:20;;;;;;;5.70;5.50;;;19.70;99.90;;;;;;10450697;28;20209;-78
2022/06/24 19:22:23;;;;;;;5.80;5.50;;;19.70;99.90;;;;;;10432952;28;20221;-78
2022/06/24 19:27:25;;;;;;;6.47;6.10;;;19.70;99.90;;;;;;10450968;28;20201;-77
2022/06/24 19:32:28;;;;;;;6.73;6.33;;;19.70;99.90;;;;;;10439855;28;20224;-77
2022/06/24 19:37:33;;;;;;;5.60;5.30;;;19.60;99.90;;;;;;10450287;28;20205;-77
2022/06/24 19:42:35;;;;;;;6.17;5.87;;;19.50;99.90;;;;;;10451701;28;20217;-77
2022/06/24 19:47:37;;;;;;;5.60;5.30;;;19.40;99.90;;;;;;10437387;28;20205;-77
2022/06/24 19:52:41;;;;;;;6.60;6.30;;;19.40;99.90;;;;;;10451235;28;20323;-77
2022/06/24 19:57:43;;;;;;;6.00;5.60;;;19.40;99.90;;;;;;10451180;28;20267;-77
2022/06/24 20:08:06;;;;;;;5.20;5.00;;;19.40;99.90;;;;;;10452226;28;20283;-77
2022/06/24 20:13:08;;;;;;;5.80;5.53;;;19.40;99.90;;;;;;10448980;28;20303;-76
2022/06/24 20:18:10;;;;;;;5.97;5.73;;;19.40;99.90;;;;;;10449284;28;20193;-77
2022/06/24 20:23:17;;;;;;;5.40;5.17;;;19.40;99.90;;;;;;10431581;28;20898;-77
2022/06/24 20:28:20;;;;;;;5.73;5.47;;;19.40;99.90;;;;;;10431525;28;20197;-77
2022/06/24 20:33:22;;;;;;;6.00;5.50;;;19.40;99.90;;;;;;10430242;28;20296;-77
2022/06/24 20:38:26;;;;;;;5.00;4.80;;;19.40;99.90;;;;;;10448276;28;20740;-77
2022/06/24 20:43:28;;;;;;;5.50;5.20;;;19.40;99.90;;;;;;10442396;28;20751;-76
2022/06/24 20:48:31;;;;;;;5.63;5.23;;;19.40;99.90;;;;;;10448939;28;20668;-77
2022/06/24 20:53:35;;;;;;;5.60;5.20;;;19.30;99.90;;;;;;10448679;28;20245;-77
2022/06/24 20:58:37;;;;;;;6.07;5.77;;;19.40;99.90;;;;;;10441946;28;20205;-76
2022/06/24 21:03:39;;;;;;;5.83;5.53;;;19.40;99.90;;;;;;10449681;28;20662;-77
2022/06/24 21:08:43;;;;;;;5.50;5.30;;;19.40;99.90;;;;;;10429785;28;20292;-76
2022/06/24 21:13:45;;;;;;;4.60;4.40;;;19.40;99.90;;;;;;10441883;28;20307;-78
2022/06/24 21:18:47;;;;;;;4.80;4.60;;;19.40;99.90;;;;;;10426282;28;20197;-78
2022/06/24 21:23:51;;;;;;;4.80;4.60;;;19.40;99.90;;;;;;10435157;28;20201;-77
2022/06/24 21:28:53;;;;;;;4.87;4.57;;;19.50;99.90;;;;;;10429435;28;20284;-78
2022/06/24 21:33:56;;;;;;;4.87;4.67;;;19.50;99.90;;;;;;10418443;28;20236;-78
2022/06/24 21:39:00;;;;;;;4.03;3.73;;;19.50;99.90;;;;;;10435308;28;20685;-77
2022/06/24 21:44:05;;;;;;;3.40;3.30;;;19.60;99.90;;;;;;10444626;28;20197;-77
2022/06/24 21:49:08;;;;;;;3.20;3.10;;;19.50;99.90;;;;;;10445634;28;20221;-78
2022/06/24 21:54:12;;;;;;;3.70;3.50;;;19.50;99.90;;;;;;10454684;28;20225;-77
2022/06/24 21:59:14;;;;;;;2.70;2.60;;;19.60;99.90;;;;;;10433825;28;20755;-77
2022/06/24 22:04:16;;;;;;;2.87;2.77;;;19.50;99.90;;;;;;10418211;28;20209;-77
2022/06/24 22:09:20;;;;;;;3.00;2.90;;;19.50;99.90;;;;;;10456604;28;20274;-77
2022/06/24 22:14:22;;;;;;;2.83;2.73;;;19.50;99.90;;;;;;10459473;28;20232;-78
2022/06/24 22:19:24;;;;;;;2.70;2.60;;;19.40;99.90;;;;;;10455058;28;20249;-77
2022/06/24 22:24:28;;;;;;;2.60;2.50;;;19.30;99.90;;;;;;10426784;28;20204;-77
2022/06/24 22:29:30;;;;;;;2.80;2.70;;;19.30;99.90;;;;;;10438555;28;20235;-76
2022/06/24 22:34:32;;;;;;;2.90;2.80;;;19.30;99.90;;;;;;10456887;28;20310;-76
2022/06/24 22:39:35;;;;;;;2.47;2.37;;;19.30;99.90;;;;;;10452286;28;20224;-77
2022/06/24 22:44:37;;;;;;;2.87;2.67;;;19.30;99.90;;;;;;10432330;28;20292;-76
2022/06/24 22:49:40;;;;;;;3.10;2.80;;;19.20;99.90;;;;;;10431150;28;20334;-76
2022/06/24 22:54:43;;;;;;;2.90;2.80;;;19.20;99.90;;;;;;10439473;28;20609;-76
2022/06/24 22:59:45;;;;;;;2.40;2.30;;;19.20;99.90;;;;;;10407127;28;20256;-79
2022/06/24 23:04:47;;;;;;;2.90;2.70;;;19.20;99.90;;;;;;10423193;28;20222;-77
2022/06/24 23:09:52;;;;;;;7.23;2.97;;;19.20;99.90;;;;;;10439563;28;20291;-77
2022/06/24 23:14:54;;;;;;;2.47;2.37;;;19.10;99.90;;;;;;10418764;28;20344;-78
2022/06/24 23:19:57;;;;;;;3.50;2.70;;;19.10;99.90;;;;;;10450908;28;20712;-78
2022/06/24 23:25:00;;;;;;;3.10;2.90;;;19.00;99.90;;;;;;10452928;28;20201;-76
2022/06/24 23:30:03;;;;;;;3.13;2.93;;;19.00;99.90;;;;;;10445505;28;20304;-78
2022/06/24 23:35:06;;;;;;;2.30;2.20;;;19.00;99.90;;;;;;10451778;28;20242;-77
2022/06/24 23:40:11;;;;;;;3.03;2.20;;;19.00;99.90;;;;;;10444453;28;20596;-78
2022/06/24 23:45:13;;;;;;;2.47;2.37;;;19.00;99.90;;;;;;10446082;28;20205;-78
2022/06/24 23:55:36;;;;;;;3.00;2.87;;;19.00;99.90;;;;;;10439532;28;20228;-78
